sensor_id;sensor_type;location;lat;lon;timestamp;P1;durP1;ratioP1;P2;durP2;ratioP2
14292;SDS011;62290;59.420;17.842;2023-09-30T00:01:34;6.63;;;3.58;;
14292;SDS011;62290;59.420;17.842;2023-09-30T00:04:04;5.55;;;3.47;;
14292;SDS011;62290;59.420;17.842;2023-09-30T00:06:33;6.55;;;3.83;;
14292;SDS011;62290;59.420;17.842;2023-09-30T00:09:02;10.40;;;4.43;;
14292;SDS011;62290;59.420;17.842;2023-09-30T00:11:31;8.02;;;3.58;;
14292;SDS011;62290;59.420;17.842;2023-09-30T00:13:59;4.93;;;3.08;;
14292;SDS011;62290;59.420;17.842;2023-09-30T00:16:27;9.90;;;3.25;;
14292;SDS011;62290;59.420;17.842;2023-09-30T00:18:55;6.57;;;3.40;;
14292;SDS011;62290;59.420;17.842;2023-09-30T00:21:26;6.13;;;3.42;;
14292;SDS011;62290;59.420;17.842;2023-09-30T00:23:54;5.82;;;3.35;;
14292;SDS011;62290;59.420;17.842;2023-09-30T00:26:25;6.88;;;3.45;;
14292;SDS011;62290;59.420;17.842;2023-09-30T00:28:53;8.50;;;3.42;;
14292;SDS011;62290;59.420;17.842;2023-09-30T00:31:21;9.40;;;4.07;;
14292;SDS011;62290;59.420;17.842;2023-09-30T00:33:49;8.13;;;3.60;;
14292;SDS011;62290;59.420;17.842;2023-09-30T00:36:17;8.65;;;3.50;;
14292;SDS011;62290;59.420;17.842;2023-09-30T00:38:47;10.85;;;3.63;;
14292;SDS011;62290;59.420;17.842;2023-09-30T00:41:15;5.65;;;3.05;;
14292;SDS011;62290;59.420;17.842;2023-09-30T00:43:44;6.03;;;3.45;;
14292;SDS011;62290;59.420;17.842;2023-09-30T00:46:15;8.23;;;3.25;;
14292;SDS011;62290;59.420;17.842;2023-09-30T00:48:50;5.78;;;3.03;;
14292;SDS011;62290;59.420;17.842;2023-09-30T00:51:19;5.10;;;3.15;;
14292;SDS011;62290;59.420;17.842;2023-09-30T00:53:48;6.38;;;2.85;;
14292;SDS011;62290;59.420;17.842;2023-09-30T00:56:18;5.70;;;2.55;;
14292;SDS011;62290;59.420;17.842;2023-09-30T00:58:47;6.70;;;3.17;;
14292;SDS011;62290;59.420;17.842;2023-09-30T01:01:17;6.82;;;3.00;;
14292;SDS011;62290;59.420;17.842;2023-09-30T01:03:46;4.93;;;2.78;;
14292;SDS011;62290;59.420;17.842;2023-09-30T01:06:15;5.72;;;2.75;;
14292;SDS011;62290;59.420;17.842;2023-09-30T01:08:43;6.57;;;2.83;;
14292;SDS011;62290;59.420;17.842;2023-09-30T01:11:13;6.47;;;2.80;;
14292;SDS011;62290;59.420;17.842;2023-09-30T01:13:42;6.45;;;2.58;;
14292;SDS011;62290;59.420;17.842;2023-09-30T01:16:11;4.63;;;2.45;;
14292;SDS011;62290;59.420;17.842;2023-09-30T01:18:40;6.55;;;2.40;;
14292;SDS011;62290;59.420;17.842;2023-09-30T01:21:10;4.85;;;2.05;;
14292;SDS011;62290;59.420;17.842;2023-09-30T01:23:41;3.65;;;2.22;;
14292;SDS011;62290;59.420;17.842;2023-09-30T01:26:12;3.70;;;2.22;;
14292;SDS011;62290;59.420;17.842;2023-09-30T01:28:41;3.28;;;1.90;;
14292;SDS011;62290;59.420;17.842;2023-09-30T01:31:09;6.03;;;2.30;;
14292;SDS011;62290;59.420;17.842;2023-09-30T01:33:37;5.30;;;2.63;;
14292;SDS011;62290;59.420;17.842;2023-09-30T01:36:05;3.75;;;1.77;;
14292;SDS011;62290;59.420;17.842;2023-09-30T01:38:35;2.70;;;1.65;;
14292;SDS011;62290;59.420;17.842;2023-09-30T01:41:04;8.52;;;2.50;;
14292;SDS011;62290;59.420;17.842;2023-09-30T01:43:34;2.97;;;1.90;;
14292;SDS011;62290;59.420;17.842;2023-09-30T01:46:03;4.05;;;1.58;;
14292;SDS011;62290;59.420;17.842;2023-09-30T01:48:32;2.83;;;1.50;;
14292;SDS011;62290;59.420;17.842;2023-09-30T01:51:01;5.20;;;1.50;;
14292;SDS011;62290;59.420;17.842;2023-09-30T01:53:29;3.10;;;1.58;;
14292;SDS011;62290;59.420;17.842;2023-09-30T01:55:57;3.13;;;1.75;;
14292;SDS011;62290;59.420;17.842;2023-09-30T01:58:26;2.15;;;1.20;;
14292;SDS011;62290;59.420;17.842;2023-09-30T02:01:00;2.53;;;1.45;;
14292;SDS011;62290;59.420;17.842;2023-09-30T02:03:29;3.78;;;1.83;;
14292;SDS011;62290;59.420;17.842;2023-09-30T02:05:58;2.25;;;1.48;;
14292;SDS011;62290;59.420;17.842;2023-09-30T02:08:26;3.38;;;1.40;;
14292;SDS011;62290;59.420;17.842;2023-09-30T02:10:54;1.52;;;1.33;;
14292;SDS011;62290;59.420;17.842;2023-09-30T02:13:22;4.68;;;1.90;;
14292;SDS011;62290;59.420;17.842;2023-09-30T02:15:51;3.70;;;1.60;;
14292;SDS011;62290;59.420;17.842;2023-09-30T02:18:22;3.88;;;1.77;;
14292;SDS011;62290;59.420;17.842;2023-09-30T02:20:50;3.17;;;1.50;;
14292;SDS011;62290;59.420;17.842;2023-09-30T02:23:19;3.45;;;1.50;;
14292;SDS011;62290;59.420;17.842;2023-09-30T02:25:47;2.55;;;1.50;;
14292;SDS011;62290;59.420;17.842;2023-09-30T02:28:15;4.65;;;2.05;;
14292;SDS011;62290;59.420;17.842;2023-09-30T02:30:44;4.80;;;2.00;;
14292;SDS011;62290;59.420;17.842;2023-09-30T02:33:13;2.78;;;1.52;;
14292;SDS011;62290;59.420;17.842;2023-09-30T02:35:43;3.45;;;1.75;;
14292;SDS011;62290;59.420;17.842;2023-09-30T02:38:11;4.15;;;1.65;;
14292;SDS011;62290;59.420;17.842;2023-09-30T02:40:42;7.03;;;1.98;;
14292;SDS011;62290;59.420;17.842;2023-09-30T02:43:12;3.97;;;1.63;;
14292;SDS011;62290;59.420;17.842;2023-09-30T02:45:41;7.32;;;2.10;;
14292;SDS011;62290;59.420;17.842;2023-09-30T02:48:09;4.63;;;2.10;;
14292;SDS011;62290;59.420;17.842;2023-09-30T02:50:38;3.85;;;1.83;;
14292;SDS011;62290;59.420;17.842;2023-09-30T02:53:10;7.78;;;2.10;;
14292;SDS011;62290;59.420;17.842;2023-09-30T02:55:39;5.07;;;2.03;;
14292;SDS011;62290;59.420;17.842;2023-09-30T02:58:09;3.15;;;1.90;;
14292;SDS011;62290;59.420;17.842;2023-09-30T03:00:37;5.53;;;1.98;;
14292;SDS011;62290;59.420;17.842;2023-09-30T03:03:05;3.17;;;1.70;;
14292;SDS011;62290;59.420;17.842;2023-09-30T03:05:33;4.18;;;1.60;;
14292;SDS011;62290;59.420;17.842;2023-09-30T03:08:04;5.25;;;1.80;;
14292;SDS011;62290;59.420;17.842;2023-09-30T03:10:32;5.22;;;1.50;;
14292;SDS011;62290;59.420;17.842;2023-09-30T03:13:00;3.40;;;1.42;;
14292;SDS011;62290;59.420;17.842;2023-09-30T03:15:29;4.45;;;1.83;;
14292;SDS011;62290;59.420;17.842;2023-09-30T03:17:58;4.05;;;1.50;;
14292;SDS011;62290;59.420;17.842;2023-09-30T03:20:26;2.70;;;1.73;;
14292;SDS011;62290;59.420;17.842;2023-09-30T03:22:56;2.65;;;1.42;;
14292;SDS011;62290;59.420;17.842;2023-09-30T03:25:26;3.03;;;1.60;;
14292;SDS011;62290;59.420;17.842;2023-09-30T03:27:56;5.03;;;1.60;;
14292;SDS011;62290;59.420;17.842;2023-09-30T03:30:24;4.28;;;1.77;;
14292;SDS011;62290;59.420;17.842;2023-09-30T03:32:52;3.90;;;2.40;;
14292;SDS011;62290;59.420;17.842;2023-09-30T03:35:20;7.18;;;1.98;;
14292;SDS011;62290;59.420;17.842;2023-09-30T03:37:50;3.63;;;2.03;;
14292;SDS011;62290;59.420;17.842;2023-09-30T03:40:18;3.88;;;1.65;;
14292;SDS011;62290;59.420;17.842;2023-09-30T03:42:48;3.58;;;1.83;;
14292;SDS011;62290;59.420;17.842;2023-09-30T03:45:17;3.65;;;1.55;;
14292;SDS011;62290;59.420;17.842;2023-09-30T03:47:45;7.07;;;2.35;;
14292;SDS011;62290;59.420;17.842;2023-09-30T03:50:15;4.05;;;2.08;;
14292;SDS011;62290;59.420;17.842;2023-09-30T03:52:44;4.90;;;2.10;;
14292;SDS011;62290;59.420;17.842;2023-09-30T03:55:14;4.63;;;2.10;;
14292;SDS011;62290;59.420;17.842;2023-09-30T03:57:48;5.55;;;1.85;;
14292;SDS011;62290;59.420;17.842;2023-09-30T04:00:18;3.72;;;1.80;;
14292;SDS011;62290;59.420;17.842;2023-09-30T04:02:47;6.70;;;2.13;;
14292;SDS011;62290;59.420;17.842;2023-09-30T04:05:16;3.75;;;1.77;;
14292;SDS011;62290;59.420;17.842;2023-09-30T04:07:45;7.05;;;2.72;;
14292;SDS011;62290;59.420;17.842;2023-09-30T04:10:13;5.30;;;2.08;;
14292;SDS011;62290;59.420;17.842;2023-09-30T04:12:43;3.63;;;2.10;;
14292;SDS011;62290;59.420;17.842;2023-09-30T04:15:13;4.43;;;2.17;;
14292;SDS011;62290;59.420;17.842;2023-09-30T04:17:41;4.60;;;2.00;;
14292;SDS011;62290;59.420;17.842;2023-09-30T04:20:09;6.15;;;2.30;;
14292;SDS011;62290;59.420;17.842;2023-09-30T04:22:42;5.95;;;2.40;;
14292;SDS011;62290;59.420;17.842;2023-09-30T04:25:15;5.47;;;2.10;;
14292;SDS011;62290;59.420;17.842;2023-09-30T04:27:45;4.50;;;2.08;;
14292;SDS011;62290;59.420;17.842;2023-09-30T04:30:17;6.55;;;2.40;;
14292;SDS011;62290;59.420;17.842;2023-09-30T04:32:45;8.18;;;2.08;;
14292;SDS011;62290;59.420;17.842;2023-09-30T04:35:13;7.47;;;2.50;;
14292;SDS011;62290;59.420;17.842;2023-09-30T04:37:41;8.20;;;2.78;;
14292;SDS011;62290;59.420;17.842;2023-09-30T04:40:10;8.85;;;2.30;;
14292;SDS011;62290;59.420;17.842;2023-09-30T04:42:42;4.85;;;2.40;;
14292;SDS011;62290;59.420;17.842;2023-09-30T04:45:11;5.65;;;2.20;;
14292;SDS011;62290;59.420;17.842;2023-09-30T04:47:44;6.32;;;2.20;;
14292;SDS011;62290;59.420;17.842;2023-09-30T04:50:12;8.68;;;2.70;;
14292;SDS011;62290;59.420;17.842;2023-09-30T04:52:43;6.13;;;2.60;;
14292;SDS011;62290;59.420;17.842;2023-09-30T04:55:12;5.90;;;2.25;;
14292;SDS011;62290;59.420;17.842;2023-09-30T04:57:43;9.05;;;2.60;;
14292;SDS011;62290;59.420;17.842;2023-09-30T05:00:12;7.60;;;3.30;;
14292;SDS011;62290;59.420;17.842;2023-09-30T05:02:41;4.32;;;2.13;;
14292;SDS011;62290;59.420;17.842;2023-09-30T05:05:13;6.47;;;2.70;;
14292;SDS011;62290;59.420;17.842;2023-09-30T05:07:41;6.55;;;2.38;;
14292;SDS011;62290;59.420;17.842;2023-09-30T05:10:10;5.88;;;2.40;;
14292;SDS011;62290;59.420;17.842;2023-09-30T05:12:42;8.45;;;3.05;;
14292;SDS011;62290;59.420;17.842;2023-09-30T05:15:13;6.05;;;2.28;;
14292;SDS011;62290;59.420;17.842;2023-09-30T05:17:43;12.05;;;3.40;;
14292;SDS011;62290;59.420;17.842;2023-09-30T05:20:13;9.13;;;3.00;;
14292;SDS011;62290;59.420;17.842;2023-09-30T05:22:44;8.52;;;2.72;;
14292;SDS011;62290;59.420;17.842;2023-09-30T05:25:13;6.78;;;3.15;;
14292;SDS011;62290;59.420;17.842;2023-09-30T05:27:43;6.03;;;2.30;;
14292;SDS011;62290;59.420;17.842;2023-09-30T05:30:14;7.97;;;2.92;;
14292;SDS011;62290;59.420;17.842;2023-09-30T05:32:43;7.47;;;2.65;;
14292;SDS011;62290;59.420;17.842;2023-09-30T05:35:14;6.20;;;2.55;;
14292;SDS011;62290;59.420;17.842;2023-09-30T05:37:44;8.43;;;3.15;;
14292;SDS011;62290;59.420;17.842;2023-09-30T05:40:12;8.75;;;2.65;;
14292;SDS011;62290;59.420;17.842;2023-09-30T05:42:49;9.13;;;2.72;;
14292;SDS011;62290;59.420;17.842;2023-09-30T05:45:18;7.32;;;3.38;;
14292;SDS011;62290;59.420;17.842;2023-09-30T05:47:46;6.95;;;2.97;;
14292;SDS011;62290;59.420;17.842;2023-09-30T05:50:19;7.63;;;2.78;;
14292;SDS011;62290;59.420;17.842;2023-09-30T05:52:52;8.52;;;3.05;;
14292;SDS011;62290;59.420;17.842;2023-09-30T05:55:21;11.38;;;3.00;;
14292;SDS011;62290;59.420;17.842;2023-09-30T05:57:52;10.13;;;3.10;;
14292;SDS011;62290;59.420;17.842;2023-09-30T06:00:21;10.65;;;3.00;;
14292;SDS011;62290;59.420;17.842;2023-09-30T06:02:54;11.05;;;3.00;;
14292;SDS011;62290;59.420;17.842;2023-09-30T06:05:23;7.88;;;3.03;;
14292;SDS011;62290;59.420;17.842;2023-09-30T06:07:52;5.40;;;2.38;;
14292;SDS011;62290;59.420;17.842;2023-09-30T06:10:21;8.48;;;2.65;;
14292;SDS011;62290;59.420;17.842;2023-09-30T06:12:50;8.57;;;3.03;;
14292;SDS011;62290;59.420;17.842;2023-09-30T06:15:22;8.63;;;3.25;;
14292;SDS011;62290;59.420;17.842;2023-09-30T06:17:53;8.70;;;2.95;;
14292;SDS011;62290;59.420;17.842;2023-09-30T06:20:23;7.88;;;2.50;;
14292;SDS011;62290;59.420;17.842;2023-09-30T06:22:54;10.32;;;2.80;;
14292;SDS011;62290;59.420;17.842;2023-09-30T06:25:22;7.53;;;2.67;;
14292;SDS011;62290;59.420;17.842;2023-09-30T06:27:51;10.10;;;2.42;;
14292;SDS011;62290;59.420;17.842;2023-09-30T06:30:21;8.85;;;3.08;;
14292;SDS011;62290;59.420;17.842;2023-09-30T06:32:56;7.80;;;2.75;;
14292;SDS011;62290;59.420;17.842;2023-09-30T06:35:28;7.20;;;2.80;;
14292;SDS011;62290;59.420;17.842;2023-09-30T06:38:01;5.70;;;2.30;;
14292;SDS011;62290;59.420;17.842;2023-09-30T06:40:29;10.32;;;2.97;;
14292;SDS011;62290;59.420;17.842;2023-09-30T06:42:57;9.82;;;2.72;;
14292;SDS011;62290;59.420;17.842;2023-09-30T06:45:27;8.75;;;3.25;;
14292;SDS011;62290;59.420;17.842;2023-09-30T06:47:56;9.07;;;3.15;;
14292;SDS011;62290;59.420;17.842;2023-09-30T06:50:24;8.25;;;3.05;;
14292;SDS011;62290;59.420;17.842;2023-09-30T06:52:53;10.50;;;2.80;;
14292;SDS011;62290;59.420;17.842;2023-09-30T06:55:21;9.65;;;2.90;;
14292;SDS011;62290;59.420;17.842;2023-09-30T06:57:51;8.68;;;2.85;;
14292;SDS011;62290;59.420;17.842;2023-09-30T07:00:19;6.32;;;2.58;;
14292;SDS011;62290;59.420;17.842;2023-09-30T07:02:47;7.18;;;3.15;;
14292;SDS011;62290;59.420;17.842;2023-09-30T07:05:15;9.00;;;2.47;;
14292;SDS011;62290;59.420;17.842;2023-09-30T07:07:44;10.27;;;2.70;;
14292;SDS011;62290;59.420;17.842;2023-09-30T07:10:13;8.77;;;3.05;;
14292;SDS011;62290;59.420;17.842;2023-09-30T07:12:41;8.95;;;2.85;;
14292;SDS011;62290;59.420;17.842;2023-09-30T07:15:10;8.43;;;2.63;;
14292;SDS011;62290;59.420;17.842;2023-09-30T07:17:38;10.90;;;2.90;;
14292;SDS011;62290;59.420;17.842;2023-09-30T07:20:11;11.20;;;2.97;;
14292;SDS011;62290;59.420;17.842;2023-09-30T07:22:39;8.23;;;2.47;;
14292;SDS011;62290;59.420;17.842;2023-09-30T07:25:10;9.10;;;2.63;;
14292;SDS011;62290;59.420;17.842;2023-09-30T07:27:42;7.70;;;2.70;;
14292;SDS011;62290;59.420;17.842;2023-09-30T07:30:11;8.70;;;2.63;;
14292;SDS011;62290;59.420;17.842;2023-09-30T07:32:42;8.85;;;2.55;;
14292;SDS011;62290;59.420;17.842;2023-09-30T07:35:10;8.25;;;2.60;;
14292;SDS011;62290;59.420;17.842;2023-09-30T07:37:38;6.70;;;2.65;;
14292;SDS011;62290;59.420;17.842;2023-09-30T07:40:07;9.40;;;2.40;;
14292;SDS011;62290;59.420;17.842;2023-09-30T07:42:36;9.40;;;2.42;;
14292;SDS011;62290;59.420;17.842;2023-09-30T07:45:06;5.10;;;2.20;;
14292;SDS011;62290;59.420;17.842;2023-09-30T07:47:37;8.85;;;3.05;;
14292;SDS011;62290;59.420;17.842;2023-09-30T07:50:07;11.25;;;2.58;;
14292;SDS011;62290;59.420;17.842;2023-09-30T07:52:39;6.60;;;2.20;;
14292;SDS011;62290;59.420;17.842;2023-09-30T07:55:09;11.93;;;2.40;;
14292;SDS011;62290;59.420;17.842;2023-09-30T07:57:40;8.40;;;2.65;;
14292;SDS011;62290;59.420;17.842;2023-09-30T08:00:12;7.88;;;2.05;;
14292;SDS011;62290;59.420;17.842;2023-09-30T08:02:42;7.25;;;2.38;;
14292;SDS011;62290;59.420;17.842;2023-09-30T08:05:11;9.25;;;2.88;;
14292;SDS011;62290;59.420;17.842;2023-09-30T08:07:40;9.32;;;2.17;;
14292;SDS011;62290;59.420;17.842;2023-09-30T08:10:08;9.02;;;2.38;;
14292;SDS011;62290;59.420;17.842;2023-09-30T08:12:40;12.43;;;2.65;;
14292;SDS011;62290;59.420;17.842;2023-09-30T08:15:09;6.75;;;2.20;;
14292;SDS011;62290;59.420;17.842;2023-09-30T08:17:40;9.60;;;2.13;;
14292;SDS011;62290;59.420;17.842;2023-09-30T08:20:09;7.55;;;2.40;;
14292;SDS011;62290;59.420;17.842;2023-09-30T08:22:37;6.20;;;2.45;;
14292;SDS011;62290;59.420;17.842;2023-09-30T08:25:05;7.45;;;2.55;;
14292;SDS011;62290;59.420;17.842;2023-09-30T08:27:36;10.15;;;2.50;;
14292;SDS011;62290;59.420;17.842;2023-09-30T08:30:04;9.10;;;2.40;;
14292;SDS011;62290;59.420;17.842;2023-09-30T08:32:34;7.47;;;2.20;;
14292;SDS011;62290;59.420;17.842;2023-09-30T08:35:04;11.85;;;2.78;;
14292;SDS011;62290;59.420;17.842;2023-09-30T08:37:33;11.63;;;3.05;;
14292;SDS011;62290;59.420;17.842;2023-09-30T08:40:01;8.43;;;2.53;;
14292;SDS011;62290;59.420;17.842;2023-09-30T08:42:31;7.60;;;2.33;;
14292;SDS011;62290;59.420;17.842;2023-09-30T08:45:01;8.13;;;2.20;;
14292;SDS011;62290;59.420;17.842;2023-09-30T08:47:32;11.23;;;2.38;;
14292;SDS011;62290;59.420;17.842;2023-09-30T08:50:04;11.73;;;2.70;;
14292;SDS011;62290;59.420;17.842;2023-09-30T08:52:37;8.07;;;2.83;;
14292;SDS011;62290;59.420;17.842;2023-09-30T08:55:07;9.02;;;2.65;;
14292;SDS011;62290;59.420;17.842;2023-09-30T08:57:36;9.38;;;2.50;;
14292;SDS011;62290;59.420;17.842;2023-09-30T09:00:07;7.93;;;2.83;;
14292;SDS011;62290;59.420;17.842;2023-09-30T09:02:40;12.98;;;2.63;;
14292;SDS011;62290;59.420;17.842;2023-09-30T09:05:10;7.32;;;2.45;;
14292;SDS011;62290;59.420;17.842;2023-09-30T09:07:38;8.38;;;2.55;;
14292;SDS011;62290;59.420;17.842;2023-09-30T09:10:10;6.13;;;1.90;;
14292;SDS011;62290;59.420;17.842;2023-09-30T09:12:40;15.52;;;2.85;;
14292;SDS011;62290;59.420;17.842;2023-09-30T09:15:19;8.05;;;2.45;;
14292;SDS011;62290;59.420;17.842;2023-09-30T09:17:49;7.05;;;2.25;;
14292;SDS011;62290;59.420;17.842;2023-09-30T09:20:20;8.27;;;2.58;;
14292;SDS011;62290;59.420;17.842;2023-09-30T09:22:50;7.20;;;2.05;;
14292;SDS011;62290;59.420;17.842;2023-09-30T09:25:20;8.38;;;2.17;;
14292;SDS011;62290;59.420;17.842;2023-09-30T09:27:50;7.68;;;2.55;;
14292;SDS011;62290;59.420;17.842;2023-09-30T09:30:21;9.90;;;2.83;;
14292;SDS011;62290;59.420;17.842;2023-09-30T09:32:54;10.73;;;2.28;;
14292;SDS011;62290;59.420;17.842;2023-09-30T09:35:31;8.85;;;2.30;;
14292;SDS011;62290;59.420;17.842;2023-09-30T09:38:02;10.52;;;2.88;;
14292;SDS011;62290;59.420;17.842;2023-09-30T09:40:32;9.35;;;2.75;;
14292;SDS011;62290;59.420;17.842;2023-09-30T09:43:01;9.60;;;2.42;;
14292;SDS011;62290;59.420;17.842;2023-09-30T09:45:32;9.43;;;2.58;;
14292;SDS011;62290;59.420;17.842;2023-09-30T09:48:01;8.65;;;2.38;;
14292;SDS011;62290;59.420;17.842;2023-09-30T09:50:32;8.60;;;2.40;;
14292;SDS011;62290;59.420;17.842;2023-09-30T09:53:03;12.13;;;2.83;;
14292;SDS011;62290;59.420;17.842;2023-09-30T09:55:32;9.18;;;2.47;;
14292;SDS011;62290;59.420;17.842;2023-09-30T09:58:00;6.55;;;2.20;;
14292;SDS011;62290;59.420;17.842;2023-09-30T10:00:31;7.25;;;2.42;;
14292;SDS011;62290;59.420;17.842;2023-09-30T10:03:01;10.73;;;2.85;;
14292;SDS011;62290;59.420;17.842;2023-09-30T10:05:30;7.25;;;2.30;;
14292;SDS011;62290;59.420;17.842;2023-09-30T10:08:02;11.13;;;2.33;;
14292;SDS011;62290;59.420;17.842;2023-09-30T10:10:35;11.27;;;3.00;;
14292;SDS011;62290;59.420;17.842;2023-09-30T10:13:04;7.40;;;2.35;;
14292;SDS011;62290;59.420;17.842;2023-09-30T10:15:37;7.13;;;2.03;;
14292;SDS011;62290;59.420;17.842;2023-09-30T10:18:07;14.43;;;2.78;;
14292;SDS011;62290;59.420;17.842;2023-09-30T10:20:42;9.88;;;2.40;;
14292;SDS011;62290;59.420;17.842;2023-09-30T10:26:14;5.60;;;2.00;;
14292;SDS011;62290;59.420;17.842;2023-09-30T10:28:45;8.75;;;2.13;;
14292;SDS011;62290;59.420;17.842;2023-09-30T10:31:16;9.68;;;2.40;;
14292;SDS011;62290;59.420;17.842;2023-09-30T10:36:48;7.72;;;2.30;;
14292;SDS011;62290;59.420;17.842;2023-09-30T10:51:11;8.95;;;2.13;;
14292;SDS011;62290;59.420;17.842;2023-09-30T10:53:41;4.95;;;1.70;;
14292;SDS011;62290;59.420;17.842;2023-09-30T10:56:13;9.23;;;2.45;;
14292;SDS011;62290;59.420;17.842;2023-09-30T10:58:42;7.13;;;1.80;;
14292;SDS011;62290;59.420;17.842;2023-09-30T11:01:11;8.27;;;1.80;;
14292;SDS011;62290;59.420;17.842;2023-09-30T11:03:45;8.57;;;2.10;;
14292;SDS011;62290;59.420;17.842;2023-09-30T11:06:14;5.10;;;2.05;;
14292;SDS011;62290;59.420;17.842;2023-09-30T11:08:46;5.57;;;1.92;;
14292;SDS011;62290;59.420;17.842;2023-09-30T11:11:21;10.05;;;2.13;;
14292;SDS011;62290;59.420;17.842;2023-09-30T11:14:00;8.27;;;2.03;;
14292;SDS011;62290;59.420;17.842;2023-09-30T11:16:28;8.10;;;2.05;;
14292;SDS011;62290;59.420;17.842;2023-09-30T11:18:57;7.10;;;1.88;;
14292;SDS011;62290;59.420;17.842;2023-09-30T11:21:25;5.10;;;1.70;;
14292;SDS011;62290;59.420;17.842;2023-09-30T11:23:54;4.07;;;1.85;;
14292;SDS011;62290;59.420;17.842;2023-09-30T11:26:30;6.85;;;2.08;;
14292;SDS011;62290;59.420;17.842;2023-09-30T11:29:06;5.32;;;1.75;;
14292;SDS011;62290;59.420;17.842;2023-09-30T11:31:39;5.80;;;1.73;;
14292;SDS011;62290;59.420;17.842;2023-09-30T11:34:07;4.95;;;1.73;;
14292;SDS011;62290;59.420;17.842;2023-09-30T11:36:37;8.75;;;1.92;;
14292;SDS011;62290;59.420;17.842;2023-09-30T11:39:06;6.88;;;1.42;;
14292;SDS011;62290;59.420;17.842;2023-09-30T11:41:37;7.47;;;1.73;;
14292;SDS011;62290;59.420;17.842;2023-09-30T11:44:08;4.82;;;1.50;;
14292;SDS011;62290;59.420;17.842;2023-09-30T11:46:49;8.45;;;1.85;;
14292;SDS011;62290;59.420;17.842;2023-09-30T11:52:07;7.07;;;1.70;;
14292;SDS011;62290;59.420;17.842;2023-09-30T11:54:37;4.10;;;1.35;;
14292;SDS011;62290;59.420;17.842;2023-09-30T11:57:09;4.70;;;1.52;;
14292;SDS011;62290;59.420;17.842;2023-09-30T11:59:38;6.55;;;1.63;;
14292;SDS011;62290;59.420;17.842;2023-09-30T12:02:07;7.03;;;1.40;;
14292;SDS011;62290;59.420;17.842;2023-09-30T12:04:40;5.13;;;1.75;;
14292;SDS011;62290;59.420;17.842;2023-09-30T12:07:10;4.85;;;1.30;;
14292;SDS011;62290;59.420;17.842;2023-09-30T12:09:39;7.88;;;1.95;;
14292;SDS011;62290;59.420;17.842;2023-09-30T12:12:09;7.65;;;1.42;;
14292;SDS011;62290;59.420;17.842;2023-09-30T12:14:38;6.85;;;1.67;;
14292;SDS011;62290;59.420;17.842;2023-09-30T12:17:07;2.88;;;1.25;;
14292;SDS011;62290;59.420;17.842;2023-09-30T12:19:38;7.75;;;1.83;;
14292;SDS011;62290;59.420;17.842;2023-09-30T12:22:08;4.53;;;1.40;;
14292;SDS011;62290;59.420;17.842;2023-09-30T12:24:36;7.43;;;1.67;;
14292;SDS011;62290;59.420;17.842;2023-09-30T12:27:06;6.28;;;1.27;;
14292;SDS011;62290;59.420;17.842;2023-09-30T12:29:35;7.03;;;1.55;;
14292;SDS011;62290;59.420;17.842;2023-09-30T12:32:05;4.65;;;1.60;;
14292;SDS011;62290;59.420;17.842;2023-09-30T12:34:33;5.30;;;1.60;;
14292;SDS011;62290;59.420;17.842;2023-09-30T12:37:02;9.85;;;2.28;;
14292;SDS011;62290;59.420;17.842;2023-09-30T12:39:31;5.70;;;1.48;;
14292;SDS011;62290;59.420;17.842;2023-09-30T12:42:00;5.28;;;1.55;;
14292;SDS011;62290;59.420;17.842;2023-09-30T12:44:28;8.18;;;1.67;;
14292;SDS011;62290;59.420;17.842;2023-09-30T12:46:58;3.47;;;1.38;;
14292;SDS011;62290;59.420;17.842;2023-09-30T12:49:26;6.53;;;1.10;;
14292;SDS011;62290;59.420;17.842;2023-09-30T12:51:54;4.18;;;1.23;;
14292;SDS011;62290;59.420;17.842;2023-09-30T12:54:22;5.00;;;1.55;;
14292;SDS011;62290;59.420;17.842;2023-09-30T12:56:50;4.97;;;1.77;;
14292;SDS011;62290;59.420;17.842;2023-09-30T12:59:18;5.32;;;1.38;;
14292;SDS011;62290;59.420;17.842;2023-09-30T13:01:50;5.97;;;1.48;;
14292;SDS011;62290;59.420;17.842;2023-09-30T13:04:20;3.53;;;1.33;;
14292;SDS011;62290;59.420;17.842;2023-09-30T13:06:50;7.68;;;1.17;;
14292;SDS011;62290;59.420;17.842;2023-09-30T13:09:20;4.90;;;1.50;;
14292;SDS011;62290;59.420;17.842;2023-09-30T13:11:48;7.35;;;1.25;;
14292;SDS011;62290;59.420;17.842;2023-09-30T13:14:16;6.00;;;1.45;;
14292;SDS011;62290;59.420;17.842;2023-09-30T13:16:44;4.20;;;1.35;;
14292;SDS011;62290;59.420;17.842;2023-09-30T13:19:12;5.32;;;1.15;;
14292;SDS011;62290;59.420;17.842;2023-09-30T13:21:43;3.33;;;0.98;;
14292;SDS011;62290;59.420;17.842;2023-09-30T13:24:11;3.75;;;1.00;;
14292;SDS011;62290;59.420;17.842;2023-09-30T13:26:40;9.73;;;1.60;;
14292;SDS011;62290;59.420;17.842;2023-09-30T13:29:08;4.22;;;1.83;;
14292;SDS011;62290;59.420;17.842;2023-09-30T13:31:38;5.68;;;1.17;;
14292;SDS011;62290;59.420;17.842;2023-09-30T13:34:06;3.60;;;1.15;;
14292;SDS011;62290;59.420;17.842;2023-09-30T13:36:34;2.42;;;1.17;;
14292;SDS011;62290;59.420;17.842;2023-09-30T13:39:04;3.63;;;1.20;;
14292;SDS011;62290;59.420;17.842;2023-09-30T13:41:33;3.53;;;1.17;;
14292;SDS011;62290;59.420;17.842;2023-09-30T13:44:02;4.35;;;1.15;;
14292;SDS011;62290;59.420;17.842;2023-09-30T13:46:31;6.05;;;1.45;;
14292;SDS011;62290;59.420;17.842;2023-09-30T13:49:00;2.70;;;0.80;;
14292;SDS011;62290;59.420;17.842;2023-09-30T13:51:28;3.83;;;1.17;;
14292;SDS011;62290;59.420;17.842;2023-09-30T13:53:58;4.40;;;0.95;;
14292;SDS011;62290;59.420;17.842;2023-09-30T13:56:27;2.97;;;0.90;;
14292;SDS011;62290;59.420;17.842;2023-09-30T13:58:56;4.28;;;1.00;;
14292;SDS011;62290;59.420;17.842;2023-09-30T14:01:26;5.30;;;1.45;;
14292;SDS011;62290;59.420;17.842;2023-09-30T14:03:54;5.20;;;1.38;;
14292;SDS011;62290;59.420;17.842;2023-09-30T14:06:24;5.50;;;1.10;;
14292;SDS011;62290;59.420;17.842;2023-09-30T14:08:52;3.90;;;1.20;;
14292;SDS011;62290;59.420;17.842;2023-09-30T14:11:20;3.97;;;1.20;;
14292;SDS011;62290;59.420;17.842;2023-09-30T14:13:49;4.40;;;1.13;;
14292;SDS011;62290;59.420;17.842;2023-09-30T14:16:17;2.20;;;0.90;;
14292;SDS011;62290;59.420;17.842;2023-09-30T14:18:45;2.40;;;1.00;;
14292;SDS011;62290;59.420;17.842;2023-09-30T14:21:16;3.42;;;1.38;;
14292;SDS011;62290;59.420;17.842;2023-09-30T14:23:45;3.00;;;1.20;;
14292;SDS011;62290;59.420;17.842;2023-09-30T14:26:13;7.18;;;0.93;;
14292;SDS011;62290;59.420;17.842;2023-09-30T14:28:41;3.70;;;1.08;;
14292;SDS011;62290;59.420;17.842;2023-09-30T14:31:10;3.72;;;0.98;;
14292;SDS011;62290;59.420;17.842;2023-09-30T14:33:39;5.28;;;0.90;;
14292;SDS011;62290;59.420;17.842;2023-09-30T14:36:07;3.72;;;1.00;;
14292;SDS011;62290;59.420;17.842;2023-09-30T14:38:34;4.95;;;1.23;;
14292;SDS011;62290;59.420;17.842;2023-09-30T14:41:05;5.43;;;1.40;;
14292;SDS011;62290;59.420;17.842;2023-09-30T14:43:34;10.23;;;1.77;;
14292;SDS011;62290;59.420;17.842;2023-09-30T14:46:02;5.68;;;1.17;;
14292;SDS011;62290;59.420;17.842;2023-09-30T14:48:32;5.53;;;1.30;;
14292;SDS011;62290;59.420;17.842;2023-09-30T14:51:00;5.05;;;1.10;;
14292;SDS011;62290;59.420;17.842;2023-09-30T14:53:30;3.30;;;1.25;;
14292;SDS011;62290;59.420;17.842;2023-09-30T14:55:58;4.78;;;1.40;;
14292;SDS011;62290;59.420;17.842;2023-09-30T14:58:27;5.55;;;1.25;;
14292;SDS011;62290;59.420;17.842;2023-09-30T15:00:55;2.78;;;1.48;;
14292;SDS011;62290;59.420;17.842;2023-09-30T15:03:23;8.50;;;1.98;;
14292;SDS011;62290;59.420;17.842;2023-09-30T15:05:58;8.50;;;1.20;;
14292;SDS011;62290;59.420;17.842;2023-09-30T15:08:28;5.90;;;0.57;;